Time;durP1;ratioP1;P1;durP2;ratioP2;P2;SDS_P1;SDS_P2;PMS_P1;PMS_P2;Temp;Humidity;BMP_temperature;BMP_pressure;BME280_temperature;BME280_humidity;BME280_pressure;Samples;Min_cycle;Max_cycle;Signal;HPM_P1;HPM_P2
2022/05/05 00:02:04;;;;;;;17.87;11.07;;;;;;;;;;5041074;28;20400;-83
2022/05/05 00:04:30;;;;;;;15.43;10.40;;;;;;;;;;5042835;28;20909;-83
2022/05/05 00:06:56;;;;;;;13.60;11.00;;;;;;;;;;5041169;28;20994;-83
2022/05/05 00:09:22;;;;;;;14.57;10.13;;;;;;;;;;5042689;28;20818;-83
2022/05/05 00:14:33;;;;;;;15.47;10.30;;;;;;;;;;5050065;28;20406;-82
2022/05/05 00:17:09;;;;;;;11.10;8.50;;;;;;;;;;5043930;28;20414;-83
2022/05/05 00:19:36;;;;;;;15.33;11.00;;;;;;;;;;5043058;28;20501;-83
2022/05/05 00:22:03;;;;;;;16.20;10.57;;;;;;;;;;5042305;28;20403;-83
2022/05/05 00:24:29;;;;;;;14.87;9.57;;;;;;;;;;5041976;28;20495;-83
2022/05/05 00:26:55;;;;;;;21.10;11.40;;;;;;;;;;5041172;28;20474;-83
2022/05/05 00:29:21;;;;;;;18.87;11.30;;;;;;;;;;5039108;28;20434;-82
2022/05/05 00:31:48;;;;;;;16.37;11.30;;;;;;;;;;5035258;28;20410;-82
2022/05/05 00:34:14;;;;;;;18.17;12.30;;;;;;;;;;5035425;28;20818;-82
2022/05/05 00:36:40;;;;;;;15.80;10.50;;;;;;;;;;5035302;28;20461;-82
2022/05/05 00:39:08;;;;;;;15.00;10.87;;;;;;;;;;5035178;28;20795;-82
2022/05/05 00:41:37;;;;;;;13.97;9.33;;;;;;;;;;5035119;28;20454;-82
2022/05/05 00:44:04;;;;;;;17.50;10.67;;;;;;;;;;5035448;28;20417;-81
2022/05/05 00:46:31;;;;;;;12.93;9.57;;;;;;;;;;5034851;28;20489;-81
2022/05/05 00:48:57;;;;;;;14.17;10.80;;;;;;;;;;5035260;28;20468;-81
2022/05/05 00:51:23;;;;;;;12.00;8.03;;;;;;;;;;5035203;28;20415;-82
2022/05/05 00:53:49;;;;;;;10.47;8.60;;;;;;;;;;5035152;28;20444;-81
2022/05/05 00:56:16;;;;;;;16.80;10.33;;;;;;;;;;5034930;28;20411;-82
2022/05/05 00:58:45;;;;;;;15.67;10.27;;;;;;;;;;5034877;28;20449;-81
2022/05/05 01:01:12;;;;;;;9.67;7.77;;;;;;;;;;5034724;28;20457;-82
2022/05/05 01:03:38;;;;;;;10.40;8.00;;;;;;;;;;5034954;28;20430;-81
2022/05/05 01:06:06;;;;;;;9.63;7.83;;;;;;;;;;5034855;28;20402;-81
2022/05/05 01:08:33;;;;;;;15.87;9.67;;;;;;;;;;5034810;28;20906;-82
2022/05/05 01:10:59;;;;;;;8.93;7.83;;;;;;;;;;5034488;28;20413;-80
2022/05/05 01:13:27;;;;;;;14.70;8.53;;;;;;;;;;5034832;28;20410;-82
2022/05/05 01:15:53;;;;;;;11.43;8.60;;;;;;;;;;5034566;28;20402;-82
2022/05/05 01:18:19;;;;;;;9.13;7.20;;;;;;;;;;5034547;28;20434;-81
2022/05/05 01:21:11;;;;;;;12.60;9.60;;;;;;;;;;5034942;28;20450;-82
2022/05/05 01:23:37;;;;;;;12.30;8.40;;;;;;;;;;5032845;28;20945;-82
2022/05/05 01:28:48;;;;;;;14.17;9.77;;;;;;;;;;5035044;28;20949;-83
2022/05/05 01:31:14;;;;;;;13.90;9.73;;;;;;;;;;5036622;28;20438;-82
2022/05/05 01:33:40;;;;;;;14.33;9.27;;;;;;;;;;5039124;28;20421;-83
2022/05/05 01:36:07;;;;;;;13.23;9.17;;;;;;;;;;5037826;28;20407;-82
2022/05/05 01:38:36;;;;;;;11.80;7.93;;;;;;;;;;5039141;28;20438;-82
2022/05/05 01:41:06;;;;;;;10.70;8.23;;;;;;;;;;5038031;28;20954;-82
2022/05/05 01:43:33;;;;;;;12.13;9.60;;;;;;;;;;5038572;28;20402;-81
2022/05/05 01:45:59;;;;;;;11.00;9.20;;;;;;;;;;5038195;28;20398;-83
2022/05/05 01:48:26;;;;;;;14.40;9.77;;;;;;;;;;5037750;28;20898;-83
2022/05/05 01:50:52;;;;;;;13.60;10.20;;;;;;;;;;5038265;28;20414;-82
2022/05/05 01:53:18;;;;;;;14.17;9.30;;;;;;;;;;5038892;28;20403;-83
2022/05/05 01:55:44;;;;;;;13.60;9.40;;;;;;;;;;5037067;28;20403;-83
2022/05/05 01:58:10;;;;;;;13.47;9.10;;;;;;;;;;5038198;28;20434;-83
2022/05/05 02:00:36;;;;;;;17.43;9.93;;;;;;;;;;5104316;23;20484;-82
2022/05/05 02:03:02;;;;;;;13.80;8.73;;;;;;;;;;5076327;28;20441;-85
2022/05/05 02:05:28;;;;;;;16.00;9.87;;;;;;;;;;5077715;28;20480;-83
2022/05/05 02:07:54;;;;;;;13.07;9.50;;;;;;;;;;5078211;28;20398;-84
2022/05/05 02:10:20;;;;;;;12.53;9.47;;;;;;;;;;5077939;28;20417;-84
2022/05/05 02:12:47;;;;;;;13.30;8.87;;;;;;;;;;5078310;28;20414;-83
2022/05/05 02:15:14;;;;;;;16.67;10.17;;;;;;;;;;5078075;28;20402;-83
2022/05/05 02:17:42;;;;;;;16.40;9.93;;;;;;;;;;5078439;28;20394;-83
2022/05/05 02:20:11;;;;;;;12.00;9.53;;;;;;;;;;5078034;28;20523;-83
2022/05/05 02:22:37;;;;;;;13.00;8.73;;;;;;;;;;5078216;28;20397;-82
2022/05/05 02:25:03;;;;;;;14.83;9.90;;;;;;;;;;5076237;28;21239;-81
2022/05/05 02:27:29;;;;;;;14.67;10.77;;;;;;;;;;5077563;28;20418;-82
2022/05/05 02:29:55;;;;;;;16.30;10.17;;;;;;;;;;5077951;28;20440;-82
2022/05/05 02:32:21;;;;;;;21.27;10.73;;;;;;;;;;5078099;28;20478;-82
2022/05/05 02:34:48;;;;;;;18.63;11.57;;;;;;;;;;5078173;28;20389;-82
2022/05/05 02:39:59;;;;;;;16.23;10.30;;;;;;;;;;5078043;28;20448;-82
2022/05/05 02:42:26;;;;;;;17.13;10.53;;;;;;;;;;5078040;28;20432;-83
2022/05/05 02:44:52;;;;;;;15.00;9.67;;;;;;;;;;5077332;28;20410;-83
2022/05/05 02:47:18;;;;;;;18.70;9.70;;;;;;;;;;5077767;28;20422;-82
2022/05/05 02:49:44;;;;;;;15.60;9.27;;;;;;;;;;5077655;28;20413;-82
2022/05/05 02:52:10;;;;;;;16.67;10.17;;;;;;;;;;5077925;28;20398;-82
2022/05/05 02:54:57;;;;;;;13.47;9.80;;;;;;;;;;5077658;28;20436;-82
2022/05/05 02:57:23;;;;;;;14.17;9.40;;;;;;;;;;5077161;28;20422;-84
2022/05/05 02:59:56;;;;;;;15.60;10.27;;;;;;;;;;5076262;28;20485;-84
2022/05/05 03:02:23;;;;;;;11.57;9.33;;;;;;;;;;5076613;28;20405;-82
2022/05/05 03:04:49;;;;;;;11.30;8.97;;;;;;;;;;5077803;28;20382;-82
2022/05/05 03:07:16;;;;;;;16.30;9.80;;;;;;;;;;5077439;28;20409;-82
2022/05/05 03:09:42;;;;;;;13.53;10.00;;;;;;;;;;5078134;28;20432;-84
2022/05/05 03:12:09;;;;;;;14.00;9.17;;;;;;;;;;5080153;28;20443;-83
2022/05/05 03:14:35;;;;;;;13.03;8.50;;;;;;;;;;5081363;28;20428;-81
2022/05/05 03:17:01;;;;;;;12.60;8.57;;;;;;;;;;5081233;28;20425;-82
2022/05/05 03:19:27;;;;;;;12.20;8.20;;;;;;;;;;5081015;28;20409;-84
2022/05/05 03:21:54;;;;;;;12.87;8.53;;;;;;;;;;5081332;28;20427;-82
2022/05/05 03:24:20;;;;;;;11.43;8.73;;;;;;;;;;5080697;28;20413;-83
2022/05/05 03:26:46;;;;;;;13.73;8.47;;;;;;;;;;5081004;28;20912;-84
2022/05/05 03:29:12;;;;;;;12.40;7.97;;;;;;;;;;5081284;28;20417;-82
2022/05/05 03:31:38;;;;;;;11.47;8.20;;;;;;;;;;5081360;28;20413;-84
2022/05/05 03:34:05;;;;;;;10.70;8.40;;;;;;;;;;5080301;28;20410;-82
2022/05/05 03:36:31;;;;;;;10.57;7.10;;;;;;;;;;5080724;28;20418;-83
2022/05/05 03:38:57;;;;;;;12.27;8.13;;;;;;;;;;5081111;28;20390;-82
2022/05/05 03:41:23;;;;;;;9.90;7.50;;;;;;;;;;5080888;28;20456;-83
2022/05/05 03:43:49;;;;;;;11.60;7.93;;;;;;;;;;5080323;28;20425;-82
2022/05/05 03:46:15;;;;;;;15.90;9.20;;;;;;;;;;5081080;28;20431;-83
2022/05/05 03:48:41;;;;;;;9.47;7.10;;;;;;;;;;5078688;28;20398;-82
2022/05/05 03:51:07;;;;;;;11.10;8.07;;;;;;;;;;5080670;28;20417;-82
2022/05/05 03:53:34;;;;;;;11.67;8.00;;;;;;;;;;5078518;28;20445;-82
2022/05/05 03:56:00;;;;;;;11.00;7.87;;;;;;;;;;5080047;28;20480;-83
2022/05/05 03:58:27;;;;;;;9.87;7.57;;;;;;;;;;5080713;28;20401;-82
2022/05/05 04:00:53;;;;;;;15.57;10.33;;;;;;;;;;5080700;28;20473;-82
2022/05/05 04:03:31;;;;;;;14.80;8.00;;;;;;;;;;5081125;28;20413;-81
2022/05/05 04:06:01;;;;;;;11.27;8.50;;;;;;;;;;5080680;28;20398;-81
2022/05/05 04:08:27;;;;;;;14.50;10.53;;;;;;;;;;5080279;28;20408;-82
2022/05/05 04:10:54;;;;;;;11.80;8.47;;;;;;;;;;5078527;28;20475;-83
2022/05/05 04:13:20;;;;;;;14.47;10.43;;;;;;;;;;5076202;28;20465;-83
2022/05/05 04:15:46;;;;;;;13.13;9.20;;;;;;;;;;5078620;28;20464;-84
2022/05/05 04:18:13;;;;;;;16.00;9.40;;;;;;;;;;5079999;28;20413;-83
2022/05/05 04:20:40;;;;;;;17.67;10.83;;;;;;;;;;5078626;28;20462;-82
2022/05/05 04:23:06;;;;;;;13.67;9.90;;;;;;;;;;5079320;28;20425;-83
2022/05/05 04:25:32;;;;;;;13.63;9.90;;;;;;;;;;5079736;28;20424;-83
2022/05/05 04:27:58;;;;;;;17.60;10.60;;;;;;;;;;5079704;28;20406;-82
2022/05/05 04:30:25;;;;;;;13.47;10.33;;;;;;;;;;5066884;28;20441;-85
2022/05/05 04:32:52;;;;;;;17.57;10.87;;;;;;;;;;5060288;28;20491;-85
2022/05/05 04:35:18;;;;;;;15.07;10.93;;;;;;;;;;5060324;28;20413;-85
2022/05/05 04:37:44;;;;;;;19.80;11.20;;;;;;;;;;5060170;28;20413;-85
2022/05/05 04:40:10;;;;;;;16.23;10.10;;;;;;;;;;5060271;28;20492;-85
2022/05/05 04:42:37;;;;;;;12.00;9.47;;;;;;;;;;5059715;28;20940;-85
2022/05/05 04:45:04;;;;;;;11.57;9.00;;;;;;;;;;5059847;28;20402;-85
2022/05/05 04:47:30;;;;;;;15.87;11.37;;;;;;;;;;5060239;28;20477;-85
2022/05/05 04:49:57;;;;;;;8.30;7.30;;;;;;;;;;5060056;28;20425;-85
2022/05/05 04:52:24;;;;;;;10.47;8.40;;;;;;;;;;5060179;28;20439;-85
2022/05/05 04:54:51;;;;;;;9.57;7.77;;;;;;;;;;5059159;28;20410;-85
2022/05/05 04:57:17;;;;;;;9.23;8.00;;;;;;;;;;5058789;28;20780;-85
2022/05/05 04:59:44;;;;;;;7.90;7.10;;;;;;;;;;5059342;28;20472;-85
2022/05/05 05:02:10;;;;;;;8.10;7.23;;;;;;;;;;5059346;28;20408;-84
2022/05/05 05:04:36;;;;;;;7.73;6.73;;;;;;;;;;5059745;28;20409;-85
2022/05/05 05:07:02;;;;;;;11.23;8.80;;;;;;;;;;5060299;28;20412;-84
2022/05/05 05:09:29;;;;;;;12.97;9.67;;;;;;;;;;5059606;28;20422;-84
2022/05/05 05:11:55;;;;;;;11.57;8.47;;;;;;;;;;5059395;28;20417;-85
2022/05/05 05:14:21;;;;;;;13.77;9.27;;;;;;;;;;5058113;28;20413;-85
2022/05/05 05:16:47;;;;;;;13.73;8.50;;;;;;;;;;5059272;28;20398;-85
2022/05/05 05:19:13;;;;;;;10.37;8.90;;;;;;;;;;5059921;28;20437;-85
2022/05/05 05:21:39;;;;;;;12.67;9.97;;;;;;;;;;5058414;28;20476;-85
2022/05/05 05:24:06;;;;;;;13.87;10.70;;;;;;;;;;5058057;28;20424;-85
2022/05/05 05:26:33;;;;;;;10.90;8.43;;;;;;;;;;5059123;28;20405;-85
2022/05/05 05:28:59;;;;;;;12.17;7.63;;;;;;;;;;5059434;28;20421;-85
2022/05/05 05:31:25;;;;;;;15.73;8.90;;;;;;;;;;5059370;28;20775;-85
2022/05/05 05:33:51;;;;;;;17.40;8.97;;;;;;;;;;5057746;28;20417;-85
2022/05/05 05:36:18;;;;;;;16.67;12.40;;;;;;;;;;5059638;28;20409;-85
2022/05/05 05:38:44;;;;;;;17.40;13.10;;;;;;;;;;5068458;28;20425;-83
2022/05/05 05:41:10;;;;;;;14.90;11.83;;;;;;;;;;5070541;28;20457;-85
2022/05/05 05:43:36;;;;;;;16.20;11.83;;;;;;;;;;5068854;28;20409;-85
2022/05/05 05:46:03;;;;;;;15.57;10.90;;;;;;;;;;5068517;28;20422;-83
2022/05/05 05:48:29;;;;;;;13.63;10.00;;;;;;;;;;5061717;28;20406;-84
2022/05/05 05:50:55;;;;;;;12.40;9.87;;;;;;;;;;5059142;28;20418;-85
2022/05/05 05:53:21;;;;;;;10.67;9.13;;;;;;;;;;5059771;28;20405;-85
2022/05/05 05:55:47;;;;;;;12.27;10.07;;;;;;;;;;5059382;28;20951;-84
2022/05/05 05:58:13;;;;;;;14.73;11.23;;;;;;;;;;5059328;28;20417;-85
2022/05/05 06:00:40;;;;;;;12.90;9.97;;;;;;;;;;5057667;28;20500;-84
2022/05/05 06:05:52;;;;;;;11.50;8.00;;;;;;;;;;5059940;28;20409;-85
2022/05/05 06:08:18;;;;;;;11.53;9.70;;;;;;;;;;5056088;28;20404;-85
2022/05/05 06:10:45;;;;;;;12.23;9.33;;;;;;;;;;5059239;28;20429;-84
2022/05/05 06:13:12;;;;;;;14.03;10.67;;;;;;;;;;5058616;28;20404;-84
2022/05/05 06:15:38;;;;;;;10.70;9.60;;;;;;;;;;5055697;28;20401;-84
2022/05/05 06:18:04;;;;;;;11.17;9.00;;;;;;;;;;5059211;28;20404;-84
2022/05/05 06:20:32;;;;;;;12.57;10.43;;;;;;;;;;5058457;28;20519;-85
2022/05/05 06:22:59;;;;;;;14.23;11.63;;;;;;;;;;5057343;28;20917;-85
2022/05/05 06:25:25;;;;;;;13.03;11.03;;;;;;;;;;5058560;28;20436;-85
2022/05/05 06:27:51;;;;;;;24.50;14.77;;;;;;;;;;5060701;28;20774;-85
2022/05/05 06:30:18;;;;;;;13.57;12.17;;;;;;;;;;5059817;28;20452;-83
2022/05/05 06:32:45;;;;;;;16.70;13.50;;;;;;;;;;5059512;28;20794;-85
2022/05/05 06:35:11;;;;;;;15.83;13.07;;;;;;;;;;5058812;28;20504;-84
2022/05/05 06:37:37;;;;;;;22.60;13.10;;;;;;;;;;5058307;28;20417;-84
2022/05/05 06:40:06;;;;;;;16.30;14.13;;;;;;;;;;5059288;28;20475;-84
2022/05/05 06:42:33;;;;;;;15.77;12.30;;;;;;;;;;5066915;28;20524;-84
2022/05/05 06:44:59;;;;;;;14.77;11.37;;;;;;;;;;5068645;28;20432;-85
2022/05/05 06:47:25;;;;;;;15.13;10.57;;;;;;;;;;5064016;28;20406;-84
2022/05/05 06:49:51;;;;;;;16.90;13.80;;;;;;;;;;5063516;28;20425;-84
2022/05/05 06:52:18;;;;;;;17.40;11.40;;;;;;;;;;5067116;28;20544;-84
2022/05/05 06:54:44;;;;;;;15.43;11.67;;;;;;;;;;5071474;28;20424;-82
2022/05/05 06:57:10;;;;;;;12.30;10.87;;;;;;;;;;5065440;28;20504;-82
2022/05/05 06:59:36;;;;;;;13.77;9.53;;;;;;;;;;5061816;28;20453;-84
2022/05/05 07:02:02;;;;;;;10.73;9.67;;;;;;;;;;5061221;28;20425;-83
2022/05/05 07:07:17;;;;;;;17.57;10.70;;;;;;;;;;5062629;28;20420;-84
2022/05/05 07:12:31;;;;;;;10.63;9.53;;;;;;;;;;5076671;28;20428;-86
2022/05/05 07:14:58;;;;;;;10.53;8.60;;;;;;;;;;5067992;28;20405;-85
2022/05/05 07:17:24;;;;;;;10.90;9.53;;;;;;;;;;5066521;28;20886;-86
2022/05/05 07:19:51;;;;;;;10.00;8.83;;;;;;;;;;5066912;28;20449;-86
2022/05/05 07:22:17;;;;;;;13.97;9.63;;;;;;;;;;5066440;28;20420;-86
2022/05/05 07:24:43;;;;;;;10.10;8.93;;;;;;;;;;5065291;28;20397;-85
2022/05/05 07:27:10;;;;;;;9.60;8.60;;;;;;;;;;5063683;28;20463;-85
2022/05/05 07:29:37;;;;;;;10.73;9.60;;;;;;;;;;5066026;28;20457;-85
2022/05/05 07:32:04;;;;;;;11.23;9.98;;;;;;;;;;5073935;28;20419;-86
2022/05/05 07:34:30;;;;;;;10.53;9.27;;;;;;;;;;5065150;28;20175;-85
2022/05/05 07:36:57;;;;;;;14.40;11.57;;;;;;;;;;5068413;28;20496;-85
2022/05/05 07:39:23;;;;;;;13.43;9.63;;;;;;;;;;5068159;28;20430;-84
2022/05/05 07:41:50;;;;;;;11.97;10.67;;;;;;;;;;5063749;28;20449;-85
2022/05/05 07:44:16;;;;;;;10.80;8.93;;;;;;;;;;5062009;28;20414;-85
2022/05/05 07:46:42;;;;;;;15.03;12.23;;;;;;;;;;5062309;28;20772;-84
2022/05/05 07:49:08;;;;;;;12.30;10.70;;;;;;;;;;5059640;28;20564;-84
2022/05/05 07:51:35;;;;;;;9.97;8.83;;;;;;;;;;5060607;28;20508;-84
2022/05/05 07:56:46;;;;;;;12.70;10.20;;;;;;;;;;5059759;28;20413;-84
2022/05/05 07:59:13;;;;;;;12.13;11.00;;;;;;;;;;5061698;28;20474;-85
2022/05/05 08:01:39;;;;;;;11.17;8.83;;;;;;;;;;5061485;28;20535;-85
2022/05/05 08:04:05;;;;;;;13.97;10.83;;;;;;;;;;5062012;28;20397;-84
2022/05/05 08:06:32;;;;;;;16.10;10.70;;;;;;;;;;5062427;28;20417;-83
2022/05/05 08:08:58;;;;;;;10.70;9.60;;;;;;;;;;5060119;28;20425;-84
2022/05/05 08:11:24;;;;;;;16.10;9.90;;;;;;;;;;5060549;28;20437;-82
2022/05/05 08:13:52;;;;;;;13.83;10.77;;;;;;;;;;5060027;28;20425;-83
2022/05/05 08:16:19;;;;;;;10.93;9.83;;;;;;;;;;5058266;28;20457;-83
2022/05/05 08:18:45;;;;;;;11.10;10.00;;;;;;;;;;5059373;28;20445;-84
2022/05/05 08:21:11;;;;;;;10.10;8.10;;;;;;;;;;5058865;28;21033;-84
2022/05/05 08:23:37;;;;;;;9.60;8.60;;;;;;;;;;5057646;28;20416;-83
2022/05/05 08:28:48;;;;;;;13.33;11.57;;;;;;;;;;5062026;28;20524;-83
2022/05/05 08:31:14;;;;;;;12.07;10.83;;;;;;;;;;5058596;28;20414;-84
2022/05/05 08:33:40;;;;;;;11.50;10.40;;;;;;;;;;5058588;28;20497;-84
2022/05/05 08:36:07;;;;;;;10.10;9.10;;;;;;;;;;5059919;28;20496;-85
2022/05/05 08:38:34;;;;;;;11.07;9.47;;;;;;;;;;5061073;28;20393;-85
2022/05/05 08:41:00;;;;;;;11.47;10.37;;;;;;;;;;5061604;28;20995;-85
2022/05/05 08:43:26;;;;;;;11.90;9.33;;;;;;;;;;5061124;28;20428;-85
2022/05/05 08:45:55;;;;;;;9.80;8.80;;;;;;;;;;5060853;28;20432;-85
2022/05/05 08:48:22;;;;;;;13.70;9.90;;;;;;;;;;5052551;28;20425;-85
2022/05/05 08:50:52;;;;;;;10.07;9.07;;;;;;;;;;5060672;28;20449;-85
2022/05/05 08:53:19;;;;;;;10.77;9.67;;;;;;;;;;5061084;28;20432;-84
2022/05/05 08:55:46;;;;;;;11.70;8.70;;;;;;;;;;5063580;28;20798;-84
2022/05/05 08:58:13;;;;;;;11.93;9.70;;;;;;;;;;5062004;28;20417;-86
2022/05/05 09:00:39;;;;;;;11.30;9.20;;;;;;;;;;5061706;28;20491;-85
2022/05/05 09:03:08;;;;;;;10.57;9.47;;;;;;;;;;5063189;28;20445;-85
2022/05/05 09:06:01;;;;;;;11.23;9.00;;;;;;;;;;5066166;28;20430;-85
2022/05/05 09:08:28;;;;;;;18.03;8.43;;;;;;;;;;5063702;28;20485;-84
2022/05/05 09:11:01;;;;;;;9.63;8.33;;;;;;;;;;5066289;28;20529;-85
2022/05/05 09:13:44;;;;;;;11.93;8.90;;;;;;;;;;5073851;28;20398;-85
2022/05/05 09:16:23;;;;;;;10.73;9.73;;;;;;;;;;5070863;28;20413;-84
2022/05/05 09:18:49;;;;;;;12.90;9.30;;;;;;;;;;5076259;28;20396;-85
2022/05/05 09:21:15;;;;;;;9.47;8.47;;;;;;;;;;5074699;28;20461;-84
2022/05/05 09:26:30;;;;;;;10.87;9.17;;;;;;;;;;5060510;28;20451;-87
2022/05/05 09:28:57;;;;;;;10.50;9.40;;;;;;;;;;5061332;28;20397;-86
2022/05/05 09:31:23;;;;;;;10.85;9.52;;;;;;;;;;5058432;28;20420;-85
2022/05/05 09:33:53;;;;;;;9.73;8.10;;;;;;;;;;5083436;23;20215;-87
2022/05/05 09:36:28;;;;;;;10.00;8.20;;;;;;;;;;5036993;28;20427;-88
2022/05/05 09:38:54;;;;;;;10.40;8.87;;;;;;;;;;5023337;28;20443;-87
2022/05/05 09:41:24;;;;;;;8.73;7.83;;;;;;;;;;5023653;28;20459;-87
2022/05/05 09:43:50;;;;;;;12.13;8.10;;;;;;;;;;5030770;28;20444;-86
2022/05/05 09:46:28;;;;;;;9.53;8.53;;;;;;;;;;5041350;28;20417;-88
2022/05/05 09:48:54;;;;;;;9.70;8.67;;;;;;;;;;5023296;28;20820;-86
2022/05/05 09:51:21;;;;;;;8.97;8.10;;;;;;;;;;5021695;28;20403;-86
2022/05/05 09:59:29;;;;;;;9.17;6.90;;;;;;;;;;5022024;28;20454;-86
2022/05/05 10:01:56;;;;;;;8.33;7.43;;;;;;;;;;5020353;28;20486;-88
2022/05/05 10:04:23;;;;;;;10.20;8.50;;;;;;;;;;5019799;28;20439;-88
2022/05/05 10:06:50;;;;;;;8.30;7.23;;;;;;;;;;5021621;28;20417;-87
2022/05/05 10:09:16;;;;;;;8.13;7.20;;;;;;;;;;5021958;28;20408;-88
2022/05/05 10:11:46;;;;;;;9.00;6.90;;;;;;;;;;5024410;28;20399;-88
2022/05/05 10:14:13;;;;;;;7.67;6.87;;;;;;;;;;5028185;28;20439;-88
2022/05/05 10:16:42;;;;;;;9.17;7.07;;;;;;;;;;5032014;28;20427;-87
2022/05/05 10:19:09;;;;;;;9.50;7.23;;;;;;;;;;5025685;28;20427;-86
2022/05/05 10:21:38;;;;;;;9.40;6.47;;;;;;;;;;5024870;28;20454;-88
2022/05/05 10:24:20;;;;;;;7.33;6.30;;;;;;;;;;5022126;28;20453;-86
2022/05/05 10:26:52;;;;;;;9.03;6.83;;;;;;;;;;5021697;28;20407;-89
2022/05/05 10:29:33;;;;;;;7.27;6.50;;;;;;;;;;5022782;28;20770;-88
2022/05/05 10:32:12;;;;;;;6.43;5.83;;;;;;;;;;5022225;28;20403;-87
2022/05/05 10:34:42;;;;;;;6.60;5.87;;;;;;;;;;5019928;28;20455;-86
2022/05/05 10:37:09;;;;;;;7.97;6.53;;;;;;;;;;5020295;28;20419;-87
2022/05/05 10:39:48;;;;;;;8.47;6.13;;;;;;;;;;5022140;28;20415;-88
2022/05/05 10:42:18;;;;;;;6.70;6.00;;;;;;;;;;5021060;28;20423;-87
2022/05/05 10:45:09;;;;;;;7.97;6.10;;;;;;;;;;5022538;28;20585;-87
2022/05/05 10:47:47;;;;;;;11.43;6.13;;;;;;;;;;5022334;28;20392;-87
2022/05/05 10:50:33;;;;;;;8.10;7.30;;;;;;;;;;5021954;28;20414;-87
2022/05/05 10:53:00;;;;;;;8.37;6.83;;;;;;;;;;5022505;28;20578;-87
2022/05/05 10:55:42;;;;;;;9.20;7.40;;;;;;;;;;5022659;28;20462;-87
2022/05/05 10:58:10;;;;;;;8.27;6.17;;;;;;;;;;5021907;28;20415;-87
2022/05/05 11:00:45;;;;;;;8.00;6.90;;;;;;;;;;5022317;28;20462;-88
2022/05/05 11:03:18;;;;;;;8.50;7.10;;;;;;;;;;5021365;28;20426;-88
2022/05/05 11:05:44;;;;;;;5.73;5.00;;;;;;;;;;5022125;28;20482;-87
2022/05/05 11:08:19;;;;;;;6.60;5.47;;;;;;;;;;5020543;28;20418;-87
2022/05/05 11:11:39;;;;;;;7.37;5.70;;;;;;;;;;5021097;28;20400;-86
2022/05/05 11:13:37;;;;;;;5.97;5.10;;;;;;;;;;5019826;28;20974;-88
2022/05/05 11:22:19;;;;;;;6.17;5.50;;;;;;;;;;5019706;28;20450;-86
2022/05/05 11:24:46;;;;;;;6.50;5.83;;;;;;;;;;5018753;28;20418;-88
2022/05/05 11:27:16;;;;;;;6.50;5.90;;;;;;;;;;5019263;28;20465;-87
2022/05/05 11:29:47;;;;;;;7.17;5.57;;;;;;;;;;5019807;28;20416;-87
2022/05/05 11:32:13;;;;;;;8.17;6.00;;;;;;;;;;5022515;28;20387;-86
2022/05/05 11:34:40;;;;;;;7.83;6.37;;;;;;;;;;5023721;28;20442;-88
2022/05/05 11:37:07;;;;;;;7.40;6.60;;;;;;;;;;5022988;28;20435;-86
2022/05/05 11:39:35;;;;;;;10.63;7.00;;;;;;;;;;5022349;28;20435;-86
2022/05/05 11:42:07;;;;;;;6.83;5.13;;;;;;;;;;5022451;28;20513;-87
2022/05/05 11:44:40;;;;;;;6.63;5.70;;;;;;;;;;5023076;28;20423;-86
2022/05/05 11:47:13;;;;;;;12.13;6.10;;;;;;;;;;5023879;28;20411;-87
2022/05/05 11:49:40;;;;;;;6.13;5.43;;;;;;;;;;5024256;28;20415;-87
2022/05/05 11:52:06;;;;;;;6.63;5.30;;;;;;;;;;5024294;28;20935;-87
2022/05/05 11:54:33;;;;;;;7.87;5.97;;;;;;;;;;5022260;28;20439;-86
2022/05/05 11:57:01;;;;;;;5.37;4.87;;;;;;;;;;5023515;28;20912;-85
2022/05/05 12:02:13;;;;;;;8.13;5.80;;;;;;;;;;5024429;28;20410;-86
2022/05/05 12:04:41;;;;;;;7.83;5.97;;;;;;;;;;5024857;28;20415;-86
2022/05/05 12:07:08;;;;;;;6.00;5.37;;;;;;;;;;5024317;28;20407;-87
2022/05/05 12:09:34;;;;;;;10.73;6.80;;;;;;;;;;5026361;28;20406;-88
2022/05/05 12:12:10;;;;;;;6.60;5.90;;;;;;;;;;5025117;28;20411;-88
2022/05/05 12:14:40;;;;;;;6.67;5.87;;;;;;;;;;5023082;28;20427;-88
2022/05/05 12:17:06;;;;;;;6.80;6.20;;;;;;;;;;5025383;28;20463;-87
2022/05/05 12:19:43;;;;;;;7.90;6.80;;;;;;;;;;5028945;28;20483;-88
2022/05/05 12:22:09;;;;;;;7.33;6.33;;;;;;;;;;5027435;28;20744;-88
2022/05/05 12:24:36;;;;;;;7.90;6.27;;;;;;;;;;5023871;28;20418;-87
2022/05/05 12:27:10;;;;;;;7.73;6.53;;;;;;;;;;5024351;28;20418;-88
2022/05/05 12:29:38;;;;;;;8.60;6.13;;;;;;;;;;5024624;28;20408;-87
2022/05/05 12:32:04;;;;;;;13.00;6.27;;;;;;;;;;5026313;28;20398;-87
2022/05/05 12:34:30;;;;;;;6.33;5.73;;;;;;;;;;5023836;28;20451;-86
2022/05/05 12:37:06;;;;;;;7.13;6.40;;;;;;;;;;5024316;28;20457;-87
2022/05/05 12:39:33;;;;;;;9.77;6.83;;;;;;;;;;5024114;28;20497;-86
2022/05/05 12:42:00;;;;;;;7.57;6.43;;;;;;;;;;5022775;28;20469;-87
2022/05/05 12:44:35;;;;;;;7.40;6.60;;;;;;;;;;5024677;28;20411;-86
2022/05/05 12:47:05;;;;;;;6.00;5.13;;;;;;;;;;5022223;28;20402;-87
2022/05/05 12:49:37;;;;;;;6.50;5.80;;;;;;;;;;5022269;28;20408;-86
2022/05/05 12:52:04;;;;;;;7.30;6.60;;;;;;;;;;5017012;28;20407;-86
2022/05/05 13:00:00;;;;;;;8.77;7.50;;;;;;;;;;5019768;28;20508;-87
2022/05/05 13:02:26;;;;;;;8.83;7.50;;;;;;;;;;5019548;28;20403;-87
2022/05/05 13:04:52;;;;;;;8.80;7.80;;;;;;;;;;5019974;28;20454;-86
2022/05/05 13:07:19;;;;;;;10.20;8.10;;;;;;;;;;5024301;28;20465;-86
2022/05/05 13:09:45;;;;;;;10.70;8.53;;;;;;;;;;5022387;28;20419;-86
2022/05/05 13:12:11;;;;;;;11.03;9.93;;;;;;;;;;5023057;28;20439;-88
2022/05/05 13:14:38;;;;;;;9.10;8.07;;;;;;;;;;5035396;28;20510;-86
2022/05/05 13:17:04;;;;;;;8.27;7.13;;;;;;;;;;5041707;28;20943;-86
2022/05/05 13:19:30;;;;;;;10.77;8.93;;;;;;;;;;5027240;28;20423;-86
2022/05/05 13:21:56;;;;;;;9.00;7.80;;;;;;;;;;5030446;28;20548;-82
2022/05/05 13:24:22;;;;;;;8.30;7.37;;;;;;;;;;5036200;28;20533;-85
2022/05/05 13:26:49;;;;;;;9.00;8.10;;;;;;;;;;5029125;28;20419;-86
2022/05/05 13:29:15;;;;;;;8.27;7.37;;;;;;;;;;5025141;28;20490;-87
2022/05/05 13:31:41;;;;;;;9.10;8.13;;;;;;;;;;5030274;28;20447;-81
2022/05/05 13:34:08;;;;;;;9.03;8.10;;;;;;;;;;5035384;28;20541;-84
2022/05/05 13:36:38;;;;;;;8.67;7.17;;;;;;;;;;5019184;28;20931;-84
2022/05/05 13:39:04;;;;;;;7.17;6.33;;;;;;;;;;5020778;28;20508;-84
2022/05/05 13:41:30;;;;;;;7.97;6.80;;;;;;;;;;5023504;28;20494;-85
2022/05/05 13:43:57;;;;;;;7.17;5.80;;;;;;;;;;5022880;28;20522;-85
2022/05/05 13:46:23;;;;;;;8.05;6.60;;;;;;;;;;5025005;28;20462;-86
2022/05/05 13:48:49;;;;;;;6.33;5.73;;;;;;;;;;5042048;28;20438;-86
2022/05/05 13:51:15;;;;;;;6.90;5.67;;;;;;;;;;5037492;28;20446;-86
2022/05/05 13:53:41;;;;;;;6.33;5.20;;;;;;;;;;5033337;28;20439;-87
2022/05/05 13:56:09;;;;;;;10.20;5.97;;;;;;;;;;5028722;28;20415;-87
2022/05/05 13:58:35;;;;;;;7.20;6.47;;;;;;;;;;5029443;28;20431;-87
2022/05/05 14:01:01;;;;;;;7.43;6.70;;;;;;;;;;5028933;28;20463;-86
2022/05/05 14:03:28;;;;;;;9.83;8.83;;;;;;;;;;5021096;28;20435;-86
2022/05/05 14:05:54;;;;;;;11.13;9.77;;;;;;;;;;5030170;28;20477;-84
2022/05/05 14:13:49;;;;;;;9.67;8.70;;;;;;;;;;5016501;28;20438;-86
2022/05/05 14:16:18;;;;;;;10.70;7.40;;;;;;;;;;5035852;28;20433;-87
2022/05/05 14:18:44;;;;;;;8.70;7.67;;;;;;;;;;5019663;28;20426;-86
2022/05/05 14:21:10;;;;;;;10.23;9.13;;;;;;;;;;5023102;28;20458;-87
2022/05/05 14:23:36;;;;;;;11.07;9.87;;;;;;;;;;5045219;28;20459;-87
2022/05/05 14:26:03;;;;;;;8.83;7.90;;;;;;;;;;5023907;28;20419;-86
2022/05/05 14:28:29;;;;;;;8.93;8.03;;;;;;;;;;5019826;28;20465;-86
2022/05/05 14:30:55;;;;;;;9.00;7.97;;;;;;;;;;5030472;28;20423;-86
2022/05/05 14:33:21;;;;;;;10.77;9.67;;;;;;;;;;5024517;28;20427;-87
2022/05/05 14:35:48;;;;;;;9.65;8.73;;;;;;;;;;5037131;28;20447;-84
2022/05/05 14:38:14;;;;;;;9.20;8.30;;;;;;;;;;5021383;28;20242;-86
2022/05/05 14:40:43;;;;;;;11.93;8.90;;;;;;;;;;5021499;28;20859;-85
2022/05/05 14:43:09;;;;;;;9.23;8.30;;;;;;;;;;5022346;28;20411;-86
2022/05/05 14:45:35;;;;;;;10.27;9.23;;;;;;;;;;5021103;28;20398;-85
2022/05/05 14:48:03;;;;;;;9.13;8.23;;;;;;;;;;5035591;28;20434;-85
2022/05/05 14:50:29;;;;;;;10.37;7.23;;;;;;;;;;5020198;28;20403;-83
2022/05/05 14:52:55;;;;;;;8.03;7.17;;;;;;;;;;5021427;28;20408;-87
2022/05/05 14:55:22;;;;;;;9.00;7.63;;;;;;;;;;5041424;28;20453;-85
2022/05/05 14:57:48;;;;;;;8.33;7.53;;;;;;;;;;5039770;28;20524;-87
2022/05/05 15:00:14;;;;;;;9.90;7.60;;;;;;;;;;5054204;28;20532;-88
2022/05/05 15:02:41;;;;;;;9.37;7.33;;;;;;;;;;5025629;28;20399;-86
2022/05/05 15:05:09;;;;;;;9.87;8.67;;;;;;;;;;5029450;28;20434;-85
2022/05/05 15:07:35;;;;;;;10.20;8.23;;;;;;;;;;5054638;28;20422;-88
2022/05/05 15:10:01;;;;;;;8.00;7.07;;;;;;;;;;5024119;28;20423;-88
2022/05/05 15:12:27;;;;;;;8.50;7.70;;;;;;;;;;5034484;28;20410;-87
2022/05/05 15:14:54;;;;;;;8.00;7.20;;;;;;;;;;5062359;28;20426;-87
2022/05/05 15:17:20;;;;;;;8.57;7.20;;;;;;;;;;5046395;28;20421;-87
2022/05/05 15:19:46;;;;;;;8.97;8.07;;;;;;;;;;5060682;28;20413;-87
2022/05/05 15:22:13;;;;;;;8.17;7.37;;;;;;;;;;5060979;28;20470;-87
2022/05/05 15:24:39;;;;;;;11.90;8.47;;;;;;;;;;5061068;28;20485;-86